Aérodrome :
LOGIN :

S'inscrire | Disclaimer

   EN    FR    IT 

 










Légende :    VFR   VFR Marginal   IFR   IFR Intensif   IFR Très Intensif
Visi : 
Plafond : 
>= 8 km
>= 3000ft
5 à 8 km
1000 à 3000 ft
1500m à 5 km
500 à 1000 ft
800 à 1500m
200 à 500 ft
< 800m
< 200 ft
Symboles :   Orages  Brouillard  Fortes neiges  Fortes précipitations  Vent > 20 kt
SIGMETs :   Divers  Orages  Givrage  Turbulence  Onde Orograph.  Cendres Volcan.







- Altitude de l'aérodrome : 325 ft
- Code IATA : BES
- Voir les cartes d'approche


LFRB - Brest

DERNIER METAR :
  • 150200Z AUTO 15014KT 4300 -RA BR OVC004/// ///TCU 07/07 Q1013 TEMPO 16020G30KT 2000 +RA OVC002

METARs EXPIRÉS :
  • 150130Z AUTO 15017KT 4700 RA BR OVC004/// ///TCU 07/06 Q1013 TEMPO 16020G30KT 2000 +RA OVC002
  • 150100Z AUTO 15014KT 4900 -RA BR OVC004 07/06 Q1013 TEMPO 16020G30KT 2000 +RA
  • 150030Z AUTO 15016KT 5000 -RA BR OVC004 06/06 Q1014 TEMPO 16020G30KT 2000 +RA
  • 150000Z AUTO 15017KT 5000 -RA BR OVC005 06/05 Q1014 TEMPO 2000 +RA
  • 142330Z AUTO 14014KT 5000 -RA BR OVC006/// ///TCU 06/05 Q1015 TEMPO 2000 +RA OVC002

TAF TAF LFRB
Valide du 15 à 00h jusqu'au 16 à 06h UTC


142300Z 1500/1606 16015KT 7000 RA BKN010 OVC015
TEMPO 1500/1516 2000 +RA OVC002
TEMPO 1502/1505 16020G30KT
BECMG 1511/1514 22026G38KT
BECMG 1516/1519 26015G27KT NSW BKN018
BECMG 1601/1604 22012KT
ATIS : +33 2 98 32 02 71
Pas de NOTAMs connus pour ce terrain.



MET'MAP, la Météo Aéronautique d'un coup d'oeil ! - Copyright ORBIFLY Décembre 2007 - Disclaimer

ORBIFLY MET'MAP TEAM :

Programmation & Développement : Alexandra Zaïnal
Conception & Développement : Baudouin d'Aumeries
Co-Programmation & Développement : Marc-Olivier Méhu
Soutien technique & logistique : Manuel Goepfert

Contact : metmap@orbifly.com




SOURCES & CREDITS :

   NOAA